createdAt,value
2019-03-23T00:00:02.137Z,16.50
2019-03-23T00:02:30.678Z,16.23
2019-03-23T00:04:59.135Z,15.33
2019-03-23T00:07:27.514Z,15.13
2019-03-23T00:09:55.890Z,16.37
2019-03-23T00:12:24.301Z,17.53
2019-03-23T00:14:52.716Z,16.80
2019-03-23T00:17:21.086Z,14.77
2019-03-23T00:19:49.525Z,17.40
2019-03-23T00:22:18.118Z,16.33
2019-03-23T00:24:46.406Z,16.80
2019-03-23T00:27:14.820Z,16.10
2019-03-23T00:29:43.482Z,15.13
2019-03-23T00:32:11.905Z,16.63
2019-03-23T00:34:40.225Z,16.97
2019-03-23T00:37:11.521Z,17.93
2019-03-23T00:39:39.840Z,16.50
2019-03-23T00:42:08.246Z,16.83
2019-03-23T00:44:36.625Z,16.30
2019-03-23T00:47:05.051Z,15.77
2019-03-23T00:49:33.534Z,15.80
2019-03-23T00:52:01.969Z,16.50
2019-03-23T00:54:30.360Z,15.17
2019-03-23T00:56:58.831Z,16.10
2019-03-23T00:59:27.203Z,15.23
2019-03-23T01:01:55.573Z,15.40
2019-03-23T01:04:23.973Z,15.70
2019-03-23T01:06:52.567Z,14.80
2019-03-23T01:09:20.961Z,15.93
2019-03-23T01:11:49.508Z,15.33
2019-03-23T01:14:17.872Z,16.30
2019-03-23T01:16:46.254Z,15.53
2019-03-23T01:19:14.591Z,15.90
2019-03-23T01:21:43.012Z,14.60
2019-03-23T01:24:11.408Z,15.30
2019-03-23T01:26:39.978Z,15.67
2019-03-23T01:29:08.337Z,14.70
2019-03-23T01:31:36.721Z,15.13
2019-03-23T01:34:05.096Z,14.63
2019-03-23T01:36:33.478Z,15.20
2019-03-23T01:39:01.825Z,14.97
2019-03-23T01:41:30.159Z,14.17
2019-03-23T01:43:58.558Z,14.17
2019-03-23T01:46:26.854Z,13.80
2019-03-23T01:48:55.172Z,12.67
2019-03-23T01:51:23.575Z,12.53
2019-03-23T01:53:51.837Z,13.23
2019-03-23T01:56:20.272Z,13.40
2019-03-23T01:58:48.759Z,13.60
2019-03-23T02:01:17.090Z,12.90
2019-03-23T02:03:45.525Z,13.50
2019-03-23T02:06:13.968Z,13.90
2019-03-23T02:08:42.505Z,14.47
2019-03-23T02:11:10.832Z,14.10
2019-03-23T02:13:39.150Z,13.00
2019-03-23T02:16:07.513Z,13.80
2019-03-23T02:18:35.868Z,13.40
2019-03-23T02:21:04.277Z,12.70
2019-03-23T02:23:32.596Z,13.17
2019-03-23T02:26:00.986Z,12.80
2019-03-23T02:28:29.335Z,12.93
2019-03-23T02:30:57.723Z,12.90
2019-03-23T02:33:26.108Z,13.00
2019-03-23T02:35:54.504Z,12.77
2019-03-23T02:38:22.882Z,13.17
2019-03-23T02:40:52.624Z,12.50
2019-03-23T02:43:21.073Z,12.73
2019-03-23T02:45:49.494Z,13.20
2019-03-23T02:48:17.882Z,12.77
2019-03-23T02:50:46.249Z,12.03
2019-03-23T02:53:14.649Z,12.97
2019-03-23T02:55:42.974Z,12.43
2019-03-23T02:58:11.343Z,13.57
2019-03-23T03:00:39.689Z,12.40
2019-03-23T03:03:08.113Z,12.73
2019-03-23T03:05:36.510Z,12.33
2019-03-23T03:08:04.876Z,13.27
2019-03-23T03:10:38.103Z,12.53
2019-03-23T03:13:06.528Z,13.07
2019-03-23T03:15:34.997Z,12.37
2019-03-23T03:18:03.381Z,12.17
2019-03-23T03:20:31.730Z,12.73
2019-03-23T03:23:00.175Z,13.73
2019-03-23T03:25:28.619Z,12.60
2019-03-23T03:27:57.021Z,13.23
2019-03-23T03:30:25.440Z,14.77
2019-03-23T03:32:53.890Z,14.10
2019-03-23T03:35:22.431Z,13.23
2019-03-23T03:37:56.901Z,14.57
2019-03-23T03:40:20.944Z,13.87
2019-03-23T03:42:49.418Z,14.43
2019-03-23T03:45:22.505Z,14.17
2019-03-23T03:47:50.855Z,15.30
2019-03-23T03:50:19.264Z,15.60
2019-03-23T03:52:47.605Z,15.40
2019-03-23T03:55:16.298Z,13.97
2019-03-23T03:57:44.665Z,14.40
2019-03-23T04:00:13.016Z,14.90
2019-03-23T04:02:41.411Z,13.90
2019-03-23T04:05:09.799Z,14.70
2019-03-23T04:07:38.164Z,15.00
2019-03-23T04:10:06.697Z,13.30
2019-03-23T04:12:35.138Z,13.87
2019-03-23T04:15:03.545Z,14.20
2019-03-23T04:17:31.871Z,15.20
2019-03-23T04:20:00.487Z,15.67
2019-03-23T04:22:29.002Z,15.53
2019-03-23T04:24:57.362Z,15.37
2019-03-23T04:27:25.677Z,15.37
2019-03-23T04:29:54.065Z,16.27
2019-03-23T04:32:22.424Z,14.23
2019-03-23T04:34:50.826Z,15.23
2019-03-23T04:37:19.178Z,15.07
2019-03-23T04:39:47.513Z,14.33
2019-03-23T04:42:15.885Z,14.87
2019-03-23T04:44:44.156Z,15.17
2019-03-23T04:47:12.538Z,14.03
2019-03-23T04:49:40.886Z,15.10
2019-03-23T04:52:09.214Z,14.67
2019-03-23T04:54:38.947Z,14.20
2019-03-23T04:57:07.386Z,14.30
2019-03-23T04:59:35.786Z,13.33
2019-03-23T05:02:04.302Z,13.93
2019-03-23T05:04:32.674Z,14.60
2019-03-23T05:07:01.051Z,14.60
2019-03-23T05:09:29.367Z,13.70
2019-03-23T05:11:57.642Z,14.00
2019-03-23T05:14:26.077Z,13.97
2019-03-23T05:16:54.681Z,13.40
2019-03-23T05:19:23.037Z,13.93
2019-03-23T05:21:51.514Z,13.00
2019-03-23T05:24:19.959Z,14.23
2019-03-23T05:26:48.377Z,13.90
2019-03-23T05:29:16.756Z,14.03
2019-03-23T05:31:45.119Z,13.57
2019-03-23T05:34:13.488Z,13.17
2019-03-23T05:36:41.827Z,13.27
2019-03-23T05:39:10.213Z,13.90
2019-03-23T05:41:38.795Z,12.70
2019-03-23T05:44:07.141Z,13.60
2019-03-23T05:46:35.473Z,13.40
2019-03-23T05:49:03.856Z,14.57
2019-03-23T05:51:32.252Z,12.43
2019-03-23T05:54:00.647Z,14.37
2019-03-23T05:56:29.109Z,12.30
2019-03-23T05:58:57.470Z,12.63
2019-03-23T06:01:25.871Z,13.30
2019-03-23T06:03:54.372Z,13.90
2019-03-23T06:06:22.705Z,12.40
2019-03-23T06:08:55.341Z,12.20
2019-03-23T06:11:21.105Z,11.77
2019-03-23T06:13:49.470Z,12.13
2019-03-23T06:16:18.036Z,11.90
2019-03-23T06:18:46.327Z,11.23
2019-03-23T06:21:14.590Z,12.70
2019-03-23T06:23:43.141Z,12.10
2019-03-23T06:26:11.530Z,11.80
2019-03-23T06:28:39.955Z,12.03
2019-03-23T06:31:08.263Z,12.53
2019-03-23T06:33:36.779Z,12.23
2019-03-23T06:36:05.179Z,11.70
2019-03-23T06:38:33.486Z,11.53
2019-03-23T06:41:01.909Z,11.83
2019-03-23T06:43:30.285Z,11.70
2019-03-23T06:45:58.690Z,12.17
2019-03-23T06:48:27.181Z,11.20
2019-03-23T06:50:58.597Z,12.37
2019-03-23T06:53:27.032Z,11.80
2019-03-23T06:55:55.423Z,10.83
2019-03-23T06:58:23.774Z,11.57
2019-03-23T07:00:52.116Z,10.67
2019-03-23T07:03:20.557Z,10.73
2019-03-23T07:05:48.949Z,11.47
2019-03-23T07:08:17.431Z,10.43
2019-03-23T07:10:45.711Z,11.13
2019-03-23T07:13:14.235Z,11.30
2019-03-23T07:15:42.627Z,10.97
2019-03-23T07:18:10.929Z,10.93
2019-03-23T07:20:39.311Z,10.60
2019-03-23T07:23:07.579Z,9.87
2019-03-23T07:25:36.185Z,10.40
2019-03-23T07:28:04.539Z,10.07
2019-03-23T07:30:32.833Z,10.47
2019-03-23T07:33:01.259Z,10.50
2019-03-23T07:35:29.740Z,11.20
2019-03-23T07:37:58.205Z,11.17
2019-03-23T07:40:26.643Z,11.60
2019-03-23T07:42:55.122Z,11.57
2019-03-23T07:45:23.680Z,11.80
2019-03-23T07:47:52.097Z,10.50
2019-03-23T07:50:20.519Z,11.60
2019-03-23T07:52:48.940Z,12.00
2019-03-23T07:55:17.311Z,10.63
2019-03-23T07:57:45.625Z,10.60
2019-03-23T08:00:15.096Z,10.07
2019-03-23T08:02:43.515Z,11.20
2019-03-23T08:05:11.929Z,11.13
2019-03-23T08:07:40.292Z,11.60
2019-03-23T08:10:08.744Z,11.60
2019-03-23T08:12:37.173Z,10.83
2019-03-23T08:15:06.450Z,11.20
2019-03-23T08:17:35.247Z,11.33
2019-03-23T08:20:03.828Z,10.50
2019-03-23T08:22:32.457Z,12.13
2019-03-23T08:25:00.892Z,11.87
2019-03-23T08:27:29.477Z,11.00
2019-03-23T08:29:58.050Z,12.10
2019-03-23T08:32:26.681Z,11.93
2019-03-23T08:34:55.049Z,10.40
2019-03-23T08:37:23.346Z,10.27
2019-03-23T08:39:51.935Z,11.30
2019-03-23T08:42:20.317Z,13.40
2019-03-23T08:44:49.003Z,11.50
2019-03-23T08:47:17.433Z,12.53
2019-03-23T08:49:45.779Z,12.50
2019-03-23T08:52:14.208Z,12.80
2019-03-23T08:54:42.486Z,12.23
2019-03-23T08:57:10.933Z,12.60
2019-03-23T08:59:39.259Z,12.73
2019-03-23T09:02:07.679Z,12.33
2019-03-23T09:04:36.149Z,12.13
2019-03-23T09:07:04.641Z,12.77
2019-03-23T09:09:32.967Z,13.73
2019-03-23T09:12:01.333Z,17.07
2019-03-23T09:14:29.708Z,13.87
2019-03-23T09:16:58.114Z,13.23
2019-03-23T09:19:26.552Z,14.60
2019-03-23T09:21:54.900Z,11.47
2019-03-23T09:24:23.288Z,12.57
2019-03-23T09:26:51.855Z,12.97
2019-03-23T09:29:20.337Z,12.93
2019-03-23T09:31:48.739Z,12.90
2019-03-23T09:34:17.252Z,12.53
2019-03-23T09:36:45.598Z,14.07
2019-03-23T09:39:14.012Z,12.43
2019-03-23T09:41:42.396Z,14.27
2019-03-23T09:44:10.926Z,13.20
2019-03-23T09:46:39.298Z,14.30
2019-03-23T09:49:07.686Z,13.97
2019-03-23T09:51:36.068Z,16.00
2019-03-23T09:54:04.758Z,15.40
2019-03-23T09:56:33.204Z,14.77
2019-03-23T09:59:01.628Z,14.40
2019-03-23T10:01:30.096Z,14.90
2019-03-23T10:03:58.531Z,16.17
2019-03-23T10:06:26.957Z,15.50
2019-03-23T10:08:55.365Z,15.67
2019-03-23T10:11:23.791Z,16.57
2019-03-23T10:13:52.188Z,15.13
2019-03-23T10:16:20.639Z,16.80
2019-03-23T10:18:49.191Z,16.40
2019-03-23T10:21:17.771Z,15.97
2019-03-23T10:23:46.122Z,17.00
2019-03-23T10:26:14.513Z,18.57
2019-03-23T10:28:42.940Z,17.00
2019-03-23T10:31:11.259Z,19.10
2019-03-23T10:33:39.660Z,17.60
2019-03-23T10:36:08.130Z,16.43
2019-03-23T10:38:36.464Z,19.43
2019-03-23T10:41:04.823Z,18.47
2019-03-23T10:43:33.482Z,20.40
2019-03-23T10:46:01.879Z,18.57
2019-03-23T10:48:30.157Z,18.67
2019-03-23T10:50:58.620Z,18.93
2019-03-23T10:53:27.128Z,22.70
2019-03-23T10:55:55.617Z,19.20
2019-03-23T10:58:24.008Z,19.40
2019-03-23T11:00:52.463Z,20.00
2019-03-23T11:03:20.858Z,19.63
2019-03-23T11:05:49.206Z,19.07
2019-03-23T11:08:17.635Z,22.67
2019-03-23T11:10:45.996Z,21.00
2019-03-23T11:13:14.328Z,20.00
2019-03-23T11:15:42.792Z,22.10
2019-03-23T11:18:11.252Z,22.60
2019-03-23T11:20:39.615Z,25.33
2019-03-23T11:23:08.057Z,25.93
2019-03-23T11:25:36.822Z,25.30
2019-03-23T11:28:05.298Z,24.13
2019-03-23T11:30:33.755Z,25.27
2019-03-23T11:33:02.254Z,24.50
2019-03-23T11:35:30.651Z,23.37
2019-03-23T11:38:02.131Z,24.47
2019-03-23T11:40:29.103Z,23.10
2019-03-23T11:42:57.582Z,24.60
2019-03-23T11:45:26.018Z,24.20
2019-03-23T11:47:54.796Z,24.20
2019-03-23T11:50:23.172Z,26.17
2019-03-23T11:52:51.569Z,26.60
2019-03-23T11:55:19.967Z,27.03
2019-03-23T11:57:48.339Z,25.87
2019-03-23T12:00:16.865Z,26.20
2019-03-23T12:02:45.317Z,25.80
2019-03-23T12:05:14.114Z,25.67
2019-03-23T12:07:42.567Z,24.80
2019-03-23T12:10:11.315Z,24.40
2019-03-23T12:12:39.911Z,26.13
2019-03-23T12:15:08.597Z,26.27
2019-03-23T12:17:37.017Z,26.63
2019-03-23T12:20:05.862Z,27.33
2019-03-23T12:22:34.268Z,27.77
2019-03-23T12:25:02.671Z,26.53
2019-03-23T12:27:31.084Z,26.47
2019-03-23T12:30:06.940Z,27.67
2019-03-23T12:32:29.670Z,26.40
2019-03-23T12:34:58.045Z,26.03
2019-03-23T12:37:26.475Z,27.20
2019-03-23T12:39:54.943Z,26.43
2019-03-23T12:42:23.449Z,26.80
2019-03-23T12:44:51.946Z,25.00
2019-03-23T12:47:20.337Z,26.77
2019-03-23T12:49:48.903Z,26.97
2019-03-23T12:52:17.486Z,23.47
2019-03-23T12:54:45.925Z,24.67
2019-03-23T12:57:14.369Z,25.80
2019-03-23T12:59:42.819Z,27.00
2019-03-23T13:02:11.268Z,26.10
2019-03-23T13:04:39.703Z,25.10
2019-03-23T13:07:08.121Z,25.20
2019-03-23T13:09:36.498Z,23.73
2019-03-23T13:12:05.008Z,24.60
2019-03-23T13:14:34.398Z,22.80
2019-03-23T13:17:02.826Z,23.30
2019-03-23T13:19:31.306Z,23.30
2019-03-23T13:21:59.756Z,22.20
2019-03-23T13:24:28.320Z,23.03
2019-03-23T13:26:56.972Z,22.43
2019-03-23T13:29:25.489Z,24.03
2019-03-23T13:31:53.982Z,22.53
2019-03-23T13:34:22.453Z,22.73
2019-03-23T13:36:50.886Z,23.07
2019-03-23T13:39:19.325Z,22.83
2019-03-23T13:41:47.952Z,23.47
2019-03-23T13:44:16.358Z,23.53
2019-03-23T13:46:44.792Z,24.40
2019-03-23T13:49:13.239Z,23.40
2019-03-23T13:51:41.692Z,21.33
2019-03-23T13:54:10.066Z,21.90
2019-03-23T13:56:38.484Z,21.90
2019-03-23T13:59:06.921Z,22.77
2019-03-23T14:01:35.530Z,20.80
2019-03-23T14:04:04.016Z,20.10
2019-03-23T14:06:32.459Z,19.07
2019-03-23T14:09:00.944Z,20.80
2019-03-23T14:11:29.416Z,21.53
2019-03-23T14:13:57.891Z,19.70
2019-03-23T14:16:26.627Z,17.83
2019-03-23T14:18:55.080Z,18.33
2019-03-23T14:21:23.491Z,18.47
2019-03-23T14:23:51.947Z,19.10
2019-03-23T14:26:20.546Z,21.87
2019-03-23T14:28:49.008Z,24.80
2019-03-23T14:31:17.608Z,24.17
2019-03-23T14:33:46.073Z,24.17
2019-03-23T14:36:14.487Z,27.50
2019-03-23T14:38:42.906Z,23.93
2019-03-23T14:41:11.319Z,22.17
2019-03-23T14:43:39.701Z,22.13
2019-03-23T14:46:08.111Z,21.87
2019-03-23T14:48:36.451Z,19.77
2019-03-23T14:51:04.875Z,20.40
2019-03-23T14:53:33.284Z,22.70
2019-03-23T14:56:01.711Z,23.90
2019-03-23T14:58:30.062Z,23.90
2019-03-23T15:00:58.567Z,22.97
2019-03-23T15:03:26.991Z,24.27
2019-03-23T15:05:55.373Z,23.77
2019-03-23T15:08:23.808Z,21.90
2019-03-23T15:10:52.316Z,24.20
2019-03-23T15:13:20.736Z,23.70
2019-03-23T15:15:49.154Z,23.67
2019-03-23T15:18:17.722Z,22.87
2019-03-23T15:20:46.227Z,24.67
2019-03-23T15:23:14.661Z,24.40
2019-03-23T15:25:43.078Z,22.83
2019-03-23T15:28:11.521Z,23.77
2019-03-23T15:30:39.926Z,24.53
2019-03-23T15:33:08.389Z,25.07
2019-03-23T15:35:36.866Z,23.40
2019-03-23T15:38:05.297Z,23.53
2019-03-23T15:40:33.653Z,21.90
2019-03-23T15:43:02.005Z,23.17
2019-03-23T15:45:30.500Z,22.30
2019-03-23T15:47:58.998Z,22.97
2019-03-23T15:50:27.480Z,25.27
2019-03-23T15:52:55.806Z,22.70
2019-03-23T15:55:24.251Z,24.20
2019-03-23T15:57:52.729Z,23.93
2019-03-23T16:00:21.119Z,23.00
2019-03-23T16:02:49.548Z,24.03
2019-03-23T16:05:18.042Z,22.43
2019-03-23T16:07:46.514Z,22.73
2019-03-23T16:10:14.955Z,21.53
2019-03-23T16:12:43.380Z,22.07
2019-03-23T16:15:11.929Z,23.90
2019-03-23T16:17:40.267Z,23.13
2019-03-23T16:20:09.070Z,22.43
2019-03-23T16:22:40.594Z,23.80
2019-03-23T16:25:09.511Z,22.63
2019-03-23T16:27:37.939Z,24.30
2019-03-23T16:30:08.284Z,23.93
2019-03-23T16:32:36.787Z,23.17
2019-03-23T16:35:05.544Z,23.40
2019-03-23T16:37:34.052Z,24.00
2019-03-23T16:40:02.450Z,24.23
2019-03-23T16:42:30.996Z,24.20
2019-03-23T16:44:59.761Z,24.33
2019-03-23T16:47:28.136Z,23.30
2019-03-23T16:49:56.660Z,23.40
2019-03-23T16:52:25.093Z,25.03
2019-03-23T16:54:53.537Z,26.80
2019-03-23T16:57:21.926Z,26.73
2019-03-23T16:59:50.426Z,27.17
2019-03-23T17:02:19.175Z,26.70
2019-03-23T17:04:47.620Z,26.77
2019-03-23T17:07:16.091Z,25.43
2019-03-23T17:09:44.516Z,27.40
2019-03-23T17:12:16.074Z,26.50
2019-03-23T17:14:44.535Z,26.10
2019-03-23T17:17:12.959Z,27.60
2019-03-23T17:19:41.448Z,27.90
2019-03-23T17:22:09.874Z,27.23
2019-03-23T17:24:38.355Z,28.30
2019-03-23T17:27:06.854Z,27.93
2019-03-23T17:29:35.366Z,29.50
2019-03-23T17:32:03.892Z,29.90
2019-03-23T17:34:32.333Z,29.77
2019-03-23T17:37:00.817Z,29.13
2019-03-23T17:39:29.128Z,27.37
2019-03-23T17:41:57.677Z,29.10
2019-03-23T17:44:26.158Z,30.53
2019-03-23T17:46:54.680Z,29.60
2019-03-23T17:49:23.108Z,29.67
2019-03-23T17:51:51.446Z,29.90
2019-03-23T17:54:19.880Z,30.30
2019-03-23T17:56:48.328Z,29.43
2019-03-23T17:59:16.874Z,31.60
2019-03-23T18:01:45.446Z,32.00
2019-03-23T18:04:13.823Z,31.17
2019-03-23T18:06:42.285Z,34.93
2019-03-23T18:09:10.923Z,37.10
2019-03-23T18:11:39.488Z,35.10
2019-03-23T18:14:09.343Z,35.30
2019-03-23T18:16:37.768Z,37.23
2019-03-23T18:19:06.171Z,39.07
2019-03-23T18:21:34.593Z,36.73
2019-03-23T18:24:03.022Z,37.23
2019-03-23T18:26:31.465Z,38.60
2019-03-23T18:28:59.855Z,37.00
2019-03-23T18:31:28.262Z,40.90
2019-03-23T18:33:56.750Z,38.27
2019-03-23T18:36:25.118Z,36.90
2019-03-23T18:38:53.581Z,39.10
2019-03-23T18:41:22.016Z,38.30
2019-03-23T18:43:50.446Z,37.80
2019-03-23T18:46:18.877Z,39.07
2019-03-23T18:48:47.276Z,38.63
2019-03-23T18:51:15.583Z,39.17
2019-03-23T18:53:44.223Z,41.37
2019-03-23T18:56:12.585Z,40.63
2019-03-23T18:58:40.976Z,40.03
2019-03-23T19:01:09.419Z,41.10
2019-03-23T19:03:40.346Z,42.40
2019-03-23T19:06:08.700Z,41.70
2019-03-23T19:08:37.190Z,42.40
2019-03-23T19:11:05.864Z,42.20
2019-03-23T19:13:38.047Z,44.50
2019-03-23T19:16:04.578Z,41.97
2019-03-23T19:18:33.090Z,42.03
2019-03-23T19:21:01.729Z,41.00
2019-03-23T19:23:30.312Z,42.23
2019-03-23T19:25:58.826Z,44.37
2019-03-23T19:28:27.351Z,44.87
2019-03-23T19:30:55.870Z,42.80
2019-03-23T19:33:24.278Z,43.07
2019-03-23T19:35:52.759Z,45.63
2019-03-23T19:38:21.256Z,43.17
2019-03-23T19:40:49.655Z,47.73
2019-03-23T19:43:18.093Z,48.80
2019-03-23T19:45:46.558Z,47.07
2019-03-23T19:48:15.031Z,46.20
2019-03-23T19:50:43.621Z,47.10
2019-03-23T19:53:12.075Z,47.47
2019-03-23T19:55:40.683Z,45.90
2019-03-23T19:58:09.466Z,47.60
2019-03-23T20:00:38.049Z,45.60
2019-03-23T20:03:06.615Z,46.30
2019-03-23T20:05:35.123Z,46.13
2019-03-23T20:08:03.710Z,48.20
2019-03-23T20:10:32.159Z,48.53
2019-03-23T20:13:00.754Z,48.20
2019-03-23T20:15:29.143Z,51.63
2019-03-23T20:17:57.587Z,48.20
2019-03-23T20:20:26.095Z,49.80
2019-03-23T20:22:54.688Z,50.53
2019-03-23T20:25:23.155Z,50.70
2019-03-23T20:27:51.737Z,48.23
2019-03-23T20:30:20.300Z,48.97
2019-03-23T20:32:48.811Z,50.80
2019-03-23T20:35:17.222Z,51.17
2019-03-23T20:37:46.069Z,49.03
2019-03-23T20:40:14.802Z,49.83
2019-03-23T20:42:43.927Z,48.10
2019-03-23T20:45:12.644Z,49.97
2019-03-23T20:47:41.047Z,49.43
2019-03-23T20:50:09.902Z,49.77
2019-03-23T20:52:38.520Z,50.47
2019-03-23T20:55:09.803Z,48.90
2019-03-23T20:57:38.357Z,50.67
2019-03-23T21:00:07.256Z,50.27
2019-03-23T21:02:35.796Z,51.23
2019-03-23T21:05:04.286Z,52.23
2019-03-23T21:07:32.938Z,50.60
2019-03-23T21:10:01.489Z,50.27
2019-03-23T21:12:30.071Z,49.60
2019-03-23T21:14:58.723Z,53.90
2019-03-23T21:17:27.324Z,51.10
2019-03-23T21:19:55.803Z,50.93
2019-03-23T21:22:24.535Z,51.00
2019-03-23T21:24:53.029Z,54.60
2019-03-23T21:27:21.752Z,52.90
2019-03-23T21:29:50.196Z,52.90
2019-03-23T21:32:18.776Z,53.93
2019-03-23T21:34:47.336Z,54.10
2019-03-23T21:37:15.754Z,53.67
2019-03-23T21:39:44.192Z,52.40
2019-03-23T21:42:12.748Z,54.00
2019-03-23T21:44:41.179Z,52.40
2019-03-23T21:47:09.595Z,54.10
2019-03-23T21:49:38.020Z,52.90
2019-03-23T21:52:06.477Z,53.60
2019-03-23T21:54:34.855Z,56.00
2019-03-23T21:57:03.308Z,54.70
2019-03-23T21:59:31.695Z,57.00
2019-03-23T22:02:00.108Z,54.07
2019-03-23T22:04:28.545Z,54.03
2019-03-23T22:06:57.394Z,55.80
2019-03-23T22:09:25.808Z,53.60
2019-03-23T22:11:54.199Z,52.57
2019-03-23T22:14:22.703Z,52.57
2019-03-23T22:16:51.096Z,54.30
2019-03-23T22:19:19.511Z,52.50
2019-03-23T22:21:47.979Z,56.10
2019-03-23T22:24:16.576Z,54.87
2019-03-23T22:26:44.984Z,53.47
2019-03-23T22:29:13.338Z,55.00
2019-03-23T22:31:41.784Z,53.70
2019-03-23T22:34:10.214Z,53.00
2019-03-23T22:36:38.762Z,54.23
2019-03-23T22:39:07.638Z,52.87
2019-03-23T22:41:36.172Z,52.23
2019-03-23T22:44:04.666Z,54.53
2019-03-23T22:46:33.058Z,52.97
2019-03-23T22:49:01.503Z,54.73
2019-03-23T22:51:30.166Z,53.07
2019-03-23T22:53:58.654Z,54.60
2019-03-23T22:56:27.106Z,52.70
2019-03-23T22:58:55.474Z,54.20
2019-03-23T23:01:23.999Z,50.77
2019-03-23T23:03:52.407Z,51.63
2019-03-23T23:06:21.178Z,51.50
2019-03-23T23:08:49.528Z,54.03
2019-03-23T23:11:18.014Z,53.47
2019-03-23T23:13:46.589Z,51.07
2019-03-23T23:16:14.987Z,53.23
2019-03-23T23:18:43.536Z,51.57
2019-03-23T23:21:11.907Z,49.23
2019-03-23T23:23:40.343Z,51.17
2019-03-23T23:26:08.785Z,50.77
2019-03-23T23:28:37.231Z,52.37
2019-03-23T23:31:05.694Z,51.30
2019-03-23T23:33:34.107Z,52.40
2019-03-23T23:36:02.541Z,50.13
2019-03-23T23:38:30.930Z,50.37
2019-03-23T23:40:59.371Z,50.70
2019-03-23T23:43:27.847Z,46.80
2019-03-23T23:45:56.495Z,49.97
2019-03-23T23:48:25.405Z,49.30
2019-03-23T23:50:53.998Z,49.47
2019-03-23T23:53:22.468Z,48.90
2019-03-23T23:55:50.974Z,48.17
2019-03-23T23:58:20.005Z,46.57
